Terminal Aerodrome Forecast
Issued by NWS

Home | Current Version | Previous Version | Text Only | Print | Product List | Glossary On
Versions: 1 2 3 4 5 6 7 8 9 10 11 12 13 14 15 16 17 18 19 20
000
FTUS43 KDVN 201600 AAB
TAFCID
TAF AMD
KCID 201637Z 2017/2112 25011KT P6SM VCSH BKN025 OVC060
     FM201800 28012KT P6SM SCT025 BKN060
      TEMPO 2018/2020 4SM -TSRA BKN025CB
     FM210000 29006KT P6SM SKC=

USA.gov is the U.S. government's official web portal to all federal, state and local government web resources and services.